This is the latest recevied weather packets stored in our database for station/object YO6FNF-10. If no packets are shown the sender has not sent any weather packets the latest 10 day(s).
| Time | Temp. | Humidity | Pressure | Rain* | Wind** | Luminosity | Snow |
|---|---|---|---|---|---|---|---|
| 1777958613 | 10° C | 65% | 1019.8 hPa | - | - | - | - |
| 1777957713 | 8.33° C | 70% | 1019.7 hPa | - | - | - | - |
| 1777956813 | 7.22° C | 74% | 1019.7 hPa | - | - | - | - |
| 1777955913 | 6.67° C | 73% | 1019.6 hPa | - | - | - | - |
| 1777955012 | 6.11° C | 75% | 1019.5 hPa | - | - | - | - |
| 1777954112 | 6.11° C | 76% | 1019.5 hPa | - | - | - | - |
| 1777953212 | 5.56° C | 75% | 1019.3 hPa | - | - | - | - |
| 1777952312 | 5.56° C | 73% | 1019.3 hPa | - | - | - | - |
| 1777951412 | 5.56° C | 74% | 1019.2 hPa | - | - | - | - |
| 1777950511 | 5.56° C | 71% | 1019.2 hPa | - | - | - | - |
| 1777949611 | 5.56° C | 69% | 1019 hPa | - | - | - | - |
| 1777948711 | 5.56° C | 70% | 1019 hPa | - | - | - | - |
| 1777947811 | 6.11° C | 68% | 1018.9 hPa | - | - | - | - |
| 1777946911 | 6.11° C | 68% | 1018.9 hPa | - | - | - | - |
| 1777946011 | 6.11° C | 68% | 1018.9 hPa | - | - | - | - |
| 1777945110 | 6.67° C | 68% | 1018.8 hPa | - | - | - | - |
| 1777944210 | 6.11° C | 70% | 1018.8 hPa | - | - | - | - |
| 1777943310 | 6.67° C | 68% | 1018.7 hPa | - | - | - | - |
| 1777942410 | 6.67° C | 67% | 1018.7 hPa | - | - | - | - |
| 1777941510 | 7.22° C | 67% | 1018.6 hPa | - | - | - | - |
| 1777940609 | 7.22° C | 67% | 1018.5 hPa | - | - | - | - |
| 1777939709 | 7.22° C | 66% | 1018.4 hPa | - | - | - | - |
| 1777938809 | 7.22° C | 66% | 1018.4 hPa | - | - | - | - |
| 1777937909 | 7.78° C | 67% | 1018.5 hPa | - | - | - | - |
| 1777937009 | 7.78° C | 66% | 1018.5 hPa | - | - | - | - |
* Rain since midnight (hover to see other rain measurements)
** Current wind speed in m/s (hover to see current wind gust speed)